Decoded Metar for CYMT (CHIBOUGAMAU CHAP in QC, CANADA) (IATA:YMT) | Meteo·Mobile Aviation Weather
aviador You're here:

CYMT Decoded Metar

CHIBOUGAMAU CHAP in QC, CANADA
Report Time2018-09-20 02:00:00
UTC Time2018-09-20 02:14:18
Flight Rules vfr VFR
WindCalm
Visibility9999 m
Phenomena:N/A
Clouds:Scattered 180 Hf
Expected CloudBase > 400 ft AGL from Temp-Dew spread
CeilingNone
Temp04°C (ISA -8)
Dew Point03°C (93% RH)
AAT2.5°C
QNH1020 hPa
Density Alt118 ft
Elevation1,270 ft
Report Wrong Elevation
Raw Report
CYMT 200200Z AUTO 00000KT 9SM SCT180 04/03 A3013 RMK SLP219=

Extra information for CYMT:More info

Metar Taf Metar & Taf Last 4 Metars F.Rules Stats Wind Profile Meteogram Temp Stats Airport Information Weather charts Add Link Nearby VenuesMetar ALERT Operation Metar Decoded Social comments